Friday, December 14, 2018, 7:18 PM EST
Back to Local

KWST, Westerly State Airport

Location: Westerly, RI, United States Lat: 41.35
Local Time: 7:18 PM EST ( 0:18 GMT) Lon: -71.8
Time Zone: US/Eastern Elev: 82 ft

Show me the last for .
Show Coded

Time T Td Feel RH Dir Speed Gust Alt SLP Vis Weather Sky Remarks
2018-12-14 18:53 48 46 - 92 - Calm - 30.36 30.36 10 OVC080 6-hr Min Temp (7pm): 46.9°F
6-hr Max Temp (7pm): 50.0°F
2018-12-14 18:27 48 45 47 89 130° 3 - 30.36 - 10 SCT013 OVC075 None
2018-12-14 17:53 48 45 47 89 150° 3 - 30.38 30.38 10 BKN013 BKN025 OVC070 None
2018-12-14 16:53 48 43 - 82 - Calm - 30.40 30.40 10 OVC013 None
2018-12-14 16:25 48 43 47 82 130° 3 - 30.40 - 10 OVC014 None
2018-12-14 15:53 49 43 48 79 130° 3 - 30.40 30.40 10 OVC016 None
2018-12-14 15:01 49 42 48 77 160° 3 - 30.41 - 10 BKN019 BKN029 None
2018-12-14 14:53 49 42 47 77 160° 5 - 30.41 30.41 10 SCT021 BKN030 None
2018-12-14 14:49 48 43 46 81 150° 5 - 30.41 - 10 SCT021 BKN030 None
2018-12-14 14:36 49 42 48 77 120° 3 - 30.41 - 10 BKN021 BKN060 None
2018-12-14 13:53 49 41 47 73 140° 6 - 30.41 30.41 10 OVC060 None
2018-12-14 12:53 49 40 45 70 120° 8 - 30.42 30.42 10 OVC060 6-hr Min Temp (1pm): 30.0°F
6-hr Max Temp (1pm): 50.0°F
2018-12-14 11:53 49 39 47 68 160° 6 - 30.46 30.46 10 CLR None
2018-12-14 10:53 49 39 45 68 140° 9 - 30.50 30.50 10 CLR None
2018-12-14 09:53 44 34 43 67 350° 3 - 30.53 30.53 10 CLR None
2018-12-14 08:53 37 32 34 81 30° 3 - 30.53 30.53 10 CLR None
2018-12-14 07:53 32 29 27 88 30° 5 - 30.52 30.52 10 CLR None
2018-12-14 06:53 31 27 26 85 10° 5 - 30.51 30.51 10 CLR 6-hr Min Temp (7am): 30.0°F
6-hr Max Temp (7am): 35.1°F
2018-12-14 05:53 31 28 27 88 20° 3 - 30.51 30.51 10 CLR None
2018-12-14 04:53 31 28 27 88 30° 3 - 30.52 30.52 10 CLR None
2018-12-14 03:53 32 28 29 85 10° 3 - 30.51 30.51 10 CLR None
2018-12-14 02:53 34 29 28 81 30° 7 - 30.53 30.53 10 FEW022 None
2018-12-14 01:53 33 28 30 81 30° 3 - 30.55 30.55 10 SCT025 None
2018-12-14 00:53 35 29 32 78 20° 3 - 30.55 30.55 10 OVC025 6-hr Min Temp (1am): 33.1°F
6-hr Max Temp (1am): 37.0°F
2018-12-13 23:53 35 28 32 75 360° 3 - 30.54 30.54 10 OVC024 24-hr Min Temp (12am): 26.1°F
24-hr Max Temp (12am): 39.0°F
2018-12-13 22:53 34 28 30 78 350° 5 - 30.54 30.54 10 BKN022 None
2018-12-13 22:41 33 27 28 77 360° 6 - 30.54 - 10 BKN023 None
2018-12-13 21:53 34 27 31 75 10° 3 - 30.54 30.54 10 FEW024 FEW055 None
2018-12-13 20:53 35 27 32 72 40° 3 - 30.53 30.53 10 OVC060 None
2018-12-13 19:53 36 27 32 69 10° 5 - 30.54 30.54 10 OVC060 None

Support USWX by starting your Amazon purchase here.